sensor_id;sensor_type;location;lat;lon;timestamp;pressure;altitude;pressure_sealevel;temperature
55038;BMP280;40937;53.594;10.034;2023-04-03T00:00:56;103480.69;;;2.79
55038;BMP280;40937;53.594;10.034;2023-04-03T00:03:23;103487.97;;;2.74
55038;BMP280;40937;53.594;10.034;2023-04-03T00:05:52;103491.75;;;2.70
55038;BMP280;40937;53.594;10.034;2023-04-03T00:08:20;103493.50;;;2.69
55038;BMP280;40937;53.594;10.034;2023-04-03T00:10:48;103483.16;;;2.68
55038;BMP280;40937;53.594;10.034;2023-04-03T00:13:16;103489.38;;;2.67
55038;BMP280;40937;53.594;10.034;2023-04-03T00:15:43;103491.75;;;2.70
55038;BMP280;40937;53.594;10.034;2023-04-03T00:18:11;103489.03;;;2.71
55038;BMP280;40937;53.594;10.034;2023-04-03T00:20:39;103489.06;;;2.59
55038;BMP280;40937;53.594;10.034;2023-04-03T00:23:07;103492.81;;;2.54
55038;BMP280;40937;53.594;10.034;2023-04-03T00:25:35;103492.59;;;2.58
55038;BMP280;40937;53.594;10.034;2023-04-03T00:28:03;103498.22;;;2.51
55038;BMP280;40937;53.594;10.034;2023-04-03T00:30:32;103497.72;;;2.59
55038;BMP280;40937;53.594;10.034;2023-04-03T00:32:59;103493.31;;;2.60
55038;BMP280;40937;53.594;10.034;2023-04-03T00:35:27;103490.91;;;2.57
55038;BMP280;40937;53.594;10.034;2023-04-03T00:37:55;103492.91;;;2.53
55038;BMP280;40937;53.594;10.034;2023-04-03T00:40:26;103496.13;;;2.57
55038;BMP280;40937;53.594;10.034;2023-04-03T00:42:56;103495.94;;;2.60
55038;BMP280;40937;53.594;10.034;2023-04-03T00:45:33;103494.91;;;2.49
55038;BMP280;40937;53.594;10.034;2023-04-03T00:48:04;103500.63;;;2.54
55038;BMP280;40937;53.594;10.034;2023-04-03T00:50:34;103502.09;;;2.59
55038;BMP280;40937;53.594;10.034;2023-04-03T00:53:03;103503.03;;;2.58
55038;BMP280;40937;53.594;10.034;2023-04-03T00:55:34;103497.50;;;2.49
55038;BMP280;40937;53.594;10.034;2023-04-03T00:58:02;103503.03;;;2.58
55038;BMP280;40937;53.594;10.034;2023-04-03T01:00:30;103502.16;;;2.44
55038;BMP280;40937;53.594;10.034;2023-04-03T01:02:57;103505.28;;;2.36
55038;BMP280;40937;53.594;10.034;2023-04-03T01:05:26;103505.09;;;2.40
55038;BMP280;40937;53.594;10.034;2023-04-03T01:07:55;103501.56;;;2.41
55038;BMP280;40937;53.594;10.034;2023-04-03T01:10:23;103506.59;;;2.31
55038;BMP280;40937;53.594;10.034;2023-04-03T01:12:53;103506.78;;;2.28
55038;BMP280;40937;53.594;10.034;2023-04-03T01:15:22;103502.69;;;2.24
55038;BMP280;40937;53.594;10.034;2023-04-03T01:17:51;103500.28;;;2.33
55038;BMP280;40937;53.594;10.034;2023-04-03T01:23:26;103502.78;;;2.35
55038;BMP280;40937;53.594;10.034;2023-04-03T01:25:57;103500.63;;;2.29
55038;BMP280;40937;53.594;10.034;2023-04-03T01:28:29;103504.03;;;2.16
55038;BMP280;40937;53.594;10.034;2023-04-03T01:31:02;103498.97;;;2.28
55038;BMP280;40937;53.594;10.034;2023-04-03T01:33:35;103501.13;;;2.21
55038;BMP280;40937;53.594;10.034;2023-04-03T01:36:03;103496.00;;;2.20
55038;BMP280;40937;53.594;10.034;2023-04-03T01:38:31;103503.81;;;2.20
55038;BMP280;40937;53.594;10.034;2023-04-03T01:40:59;103504.22;;;2.13
55038;BMP280;40937;53.594;10.034;2023-04-03T01:43:26;103499.44;;;2.07
55038;BMP280;40937;53.594;10.034;2023-04-03T01:45:54;103501.31;;;2.05
55038;BMP280;40937;53.594;10.034;2023-04-03T01:48:21;103491.97;;;2.15
55038;BMP280;40937;53.594;10.034;2023-04-03T01:50:50;103498.22;;;2.26
55038;BMP280;40937;53.594;10.034;2023-04-03T01:53:19;103499.56;;;2.18
55038;BMP280;40937;53.594;10.034;2023-04-03T01:55:47;103505.28;;;2.11
55038;BMP280;40937;53.594;10.034;2023-04-03T01:58:15;103496.84;;;2.07
55038;BMP280;40937;53.594;10.034;2023-04-03T02:00:42;103505.69;;;2.05
55038;BMP280;40937;53.594;10.034;2023-04-03T02:03:10;103514.88;;;2.10
55038;BMP280;40937;53.594;10.034;2023-04-03T02:05:37;103514.03;;;2.10
55038;BMP280;40937;53.594;10.034;2023-04-03T02:08:06;103516.50;;;1.98
55038;BMP280;40937;53.594;10.034;2023-04-03T02:10:34;103507.88;;;1.98
55038;BMP280;40937;53.594;10.034;2023-04-03T02:13:02;103507.47;;;2.04
55038;BMP280;40937;53.594;10.034;2023-04-03T02:15:29;103509.59;;;1.97
55038;BMP280;40937;53.594;10.034;2023-04-03T02:17:56;103509.50;;;1.99
55038;BMP280;40937;53.594;10.034;2023-04-03T02:20:24;103510.06;;;2.04
55038;BMP280;40937;53.594;10.034;2023-04-03T02:22:51;103506.91;;;1.99
55038;BMP280;40937;53.594;10.034;2023-04-03T02:25:19;103516.50;;;1.98
55038;BMP280;40937;53.594;10.034;2023-04-03T02:27:47;103514.81;;;1.97
55038;BMP280;40937;53.594;10.034;2023-04-03T02:30:15;103511.50;;;1.95
55038;BMP280;40937;53.594;10.034;2023-04-03T02:32:43;103510.00;;;1.91
55038;BMP280;40937;53.594;10.034;2023-04-03T02:35:11;103516.31;;;1.89
55038;BMP280;40937;53.594;10.034;2023-04-03T02:37:40;103517.31;;;1.86
55038;BMP280;40937;53.594;10.034;2023-04-03T02:40:08;103518.78;;;1.90
55038;BMP280;40937;53.594;10.034;2023-04-03T02:42:38;103519.59;;;1.91
55038;BMP280;40937;53.594;10.034;2023-04-03T02:45:07;103515.53;;;1.87
55038;BMP280;40937;53.594;10.034;2023-04-03T02:47:36;103516.41;;;1.87
55038;BMP280;40937;53.594;10.034;2023-04-03T02:50:04;103520.66;;;1.88
55038;BMP280;40937;53.594;10.034;2023-04-03T02:52:32;103520.03;;;1.85
55038;BMP280;40937;53.594;10.034;2023-04-03T02:54:59;103515.53;;;1.87
55038;BMP280;40937;53.594;10.034;2023-04-03T02:57:27;103521.28;;;1.92
55038;BMP280;40937;53.594;10.034;2023-04-03T02:59:55;103521.91;;;1.83
55038;BMP280;40937;53.594;10.034;2023-04-03T03:02:22;103520.66;;;1.88
55038;BMP280;40937;53.594;10.034;2023-04-03T03:04:50;103523.97;;;1.90
55038;BMP280;40937;53.594;10.034;2023-04-03T03:07:17;103521.91;;;1.83
55038;BMP280;40937;53.594;10.034;2023-04-03T03:09:44;103521.34;;;1.77
55038;BMP280;40937;53.594;10.034;2023-04-03T03:12:12;103520.06;;;1.70
55038;BMP280;40937;53.594;10.034;2023-04-03T03:14:39;103520.16;;;1.69
55038;BMP280;40937;53.594;10.034;2023-04-03T03:17:07;103521.81;;;1.70
55038;BMP280;40937;53.594;10.034;2023-04-03T03:19:35;103521.91;;;1.68
55038;BMP280;40937;53.594;10.034;2023-04-03T03:22:02;103524.53;;;1.68
55038;BMP280;40937;53.594;10.034;2023-04-03T03:24:29;103521.72;;;1.71
55038;BMP280;40937;53.594;10.034;2023-04-03T03:26:57;103527.13;;;1.68
55038;BMP280;40937;53.594;10.034;2023-04-03T03:29:24;103521.00;;;1.69
55038;BMP280;40937;53.594;10.034;2023-04-03T03:31:51;103524.88;;;1.76
55038;BMP280;40937;53.594;10.034;2023-04-03T03:34:20;103522.69;;;1.70
55038;BMP280;40937;53.594;10.034;2023-04-03T03:36:47;103517.84;;;1.64
55038;BMP280;40937;53.594;10.034;2023-04-03T03:39:15;103518.25;;;1.58
55038;BMP280;40937;53.594;10.034;2023-04-03T03:41:42;103519.16;;;1.57
55038;BMP280;40937;53.594;10.034;2023-04-03T03:44:09;103528.63;;;1.72
55038;BMP280;40937;53.594;10.034;2023-04-03T03:46:37;103526.34;;;1.80
55038;BMP280;40937;53.594;10.034;2023-04-03T03:49:04;103528.03;;;1.81
55038;BMP280;40937;53.594;10.034;2023-04-03T03:51:33;103528.94;;;1.80
55038;BMP280;40937;53.594;10.034;2023-04-03T03:54:03;103527.09;;;1.83
55038;BMP280;40937;53.594;10.034;2023-04-03T03:56:31;103527.50;;;1.76
55038;BMP280;40937;53.594;10.034;2023-04-03T03:58:58;103527.69;;;1.73
55038;BMP280;40937;53.594;10.034;2023-04-03T04:01:25;103537.09;;;1.61
55038;BMP280;40937;53.594;10.034;2023-04-03T04:03:53;103529.66;;;1.55
55038;BMP280;40937;53.594;10.034;2023-04-03T04:06:26;103528.66;;;1.58
55038;BMP280;40937;53.594;10.034;2023-04-03T04:08:59;103530.72;;;1.53
55038;BMP280;40937;53.594;10.034;2023-04-03T04:11:26;103528.22;;;1.51
55038;BMP280;40937;53.594;10.034;2023-04-03T04:13:54;103535.16;;;1.51
55038;BMP280;40937;53.594;10.034;2023-04-03T04:16:25;103528.78;;;1.42
55038;BMP280;40937;53.594;10.034;2023-04-03T04:18:53;103525.91;;;1.47
55038;BMP280;40937;53.594;10.034;2023-04-03T04:21:21;103528.03;;;1.54
55038;BMP280;40937;53.594;10.034;2023-04-03T04:23:51;103525.31;;;1.56
55038;BMP280;40937;53.594;10.034;2023-04-03T04:26:20;103532.81;;;1.60
55038;BMP280;40937;53.594;10.034;2023-04-03T04:28:48;103533.66;;;1.61
55038;BMP280;40937;53.594;10.034;2023-04-03T04:31:17;103540.31;;;1.65
55038;BMP280;40937;53.594;10.034;2023-04-03T04:33:45;103538.69;;;1.64
55038;BMP280;40937;53.594;10.034;2023-04-03T04:36:14;103537.81;;;1.63
55038;BMP280;40937;53.594;10.034;2023-04-03T04:38:44;103543.88;;;1.64
55038;BMP280;40937;53.594;10.034;2023-04-03T04:41:12;103541.66;;;1.58
55038;BMP280;40937;53.594;10.034;2023-04-03T04:43:41;103542.41;;;1.60
55038;BMP280;40937;53.594;10.034;2023-04-03T04:46:10;103548.31;;;1.62
55038;BMP280;40937;53.594;10.034;2023-04-03T04:48:43;103558.66;;;1.63
55038;BMP280;40937;53.594;10.034;2023-04-03T04:51:11;103561.34;;;1.62
55038;BMP280;40937;53.594;10.034;2023-04-03T04:53:39;103556.31;;;1.59
55038;BMP280;40937;53.594;10.034;2023-04-03T04:56:08;103558.19;;;1.57
55038;BMP280;40937;53.594;10.034;2023-04-03T04:58:38;103559.06;;;1.57
55038;BMP280;40937;53.594;10.034;2023-04-03T05:01:12;103563.22;;;1.60
55038;BMP280;40937;53.594;10.034;2023-04-03T05:03:51;103571.13;;;1.58
55038;BMP280;40937;53.594;10.034;2023-04-03T05:06:21;103571.03;;;1.60
55038;BMP280;40937;53.594;10.034;2023-04-03T05:08:50;103579.66;;;1.60
55038;BMP280;40937;53.594;10.034;2023-04-03T05:11:20;103568.41;;;1.60
55038;BMP280;40937;53.594;10.034;2023-04-03T05:13:53;103575.69;;;1.55
55038;BMP280;40937;53.594;10.034;2023-04-03T05:16:26;103575.69;;;1.55
55038;BMP280;40937;53.594;10.034;2023-04-03T05:18:59;103574.00;;;1.54
55038;BMP280;40937;53.594;10.034;2023-04-03T05:21:31;103581.91;;;1.52
55038;BMP280;40937;53.594;10.034;2023-04-03T05:24:04;103583.69;;;1.52
55038;BMP280;40937;53.594;10.034;2023-04-03T05:26:39;103589.44;;;1.42
55038;BMP280;40937;53.594;10.034;2023-04-03T05:29:09;103586.31;;;1.37
55038;BMP280;40937;53.594;10.034;2023-04-03T05:31:44;103587.13;;;1.38
55038;BMP280;40937;53.594;10.034;2023-04-03T05:34:16;103587.03;;;1.39
55038;BMP280;40937;53.594;10.034;2023-04-03T05:36:48;103588.72;;;1.40
55038;BMP280;40937;53.594;10.034;2023-04-03T05:39:19;103591.84;;;1.45
55038;BMP280;40937;53.594;10.034;2023-04-03T05:41:48;103595.97;;;1.50
55038;BMP280;40937;53.594;10.034;2023-04-03T05:44:18;103596.69;;;1.52
55038;BMP280;40937;53.594;10.034;2023-04-03T05:46:52;103598.72;;;1.61
55038;BMP280;40937;53.594;10.034;2023-04-03T05:49:20;103601.03;;;1.66
55038;BMP280;40937;53.594;10.034;2023-04-03T05:52:02;103600.00;;;1.68
55038;BMP280;40937;53.594;10.034;2023-04-03T05:54:31;103605.69;;;1.75
55038;BMP280;40937;53.594;10.034;2023-04-03T05:57:06;103605.41;;;1.79
55038;BMP280;40937;53.594;10.034;2023-04-03T05:59:33;103600.81;;;1.83
55038;BMP280;40937;53.594;10.034;2023-04-03T06:02:02;103603.97;;;1.88
55038;BMP280;40937;53.594;10.034;2023-04-03T06:04:30;103605.03;;;1.98
55038;BMP280;40937;53.594;10.034;2023-04-03T06:06:58;103607.34;;;2.03
55038;BMP280;40937;53.594;10.034;2023-04-03T06:09:27;103604.66;;;2.05
55038;BMP280;40937;53.594;10.034;2023-04-03T06:11:56;103606.31;;;2.06
55038;BMP280;40937;53.594;10.034;2023-04-03T06:14:25;103608.72;;;2.09
55038;BMP280;40937;53.594;10.034;2023-04-03T06:16:53;103601.34;;;2.15
55038;BMP280;40937;53.594;10.034;2023-04-03T06:19:22;103610.34;;;2.24
55038;BMP280;40937;53.594;10.034;2023-04-03T06:21:54;103603.91;;;2.30
55038;BMP280;40937;53.594;10.034;2023-04-03T06:24:21;103610.56;;;2.34
55038;BMP280;40937;53.594;10.034;2023-04-03T06:26:50;103613.69;;;2.39
55038;BMP280;40937;53.594;10.034;2023-04-03T06:29:18;103609.88;;;2.45
55038;BMP280;40937;53.594;10.034;2023-04-03T06:31:46;103612.91;;;2.51
55038;BMP280;40937;53.594;10.034;2023-04-03T06:34:14;103616.03;;;2.57
55038;BMP280;40937;53.594;10.034;2023-04-03T06:36:43;103617.72;;;2.58
55038;BMP280;40937;53.594;10.034;2023-04-03T06:39:13;103620.63;;;2.66
55038;BMP280;40937;53.594;10.034;2023-04-03T06:41:41;103615.41;;;2.66
55038;BMP280;40937;53.594;10.034;2023-04-03T06:44:08;103623.13;;;2.80
55038;BMP280;40937;53.594;10.034;2023-04-03T06:46:37;103617.63;;;2.98
55038;BMP280;40937;53.594;10.034;2023-04-03T06:49:05;103627.72;;;3.65
55038;BMP280;40937;53.594;10.034;2023-04-03T06:51:33;103628.22;;;4.18
55038;BMP280;40937;53.594;10.034;2023-04-03T06:54:04;103627.03;;;4.69
55038;BMP280;40937;53.594;10.034;2023-04-03T06:56:32;103627.19;;;4.32
55038;BMP280;40937;53.594;10.034;2023-04-03T06:58:59;103631.16;;;4.14
55038;BMP280;40937;53.594;10.034;2023-04-03T07:01:28;103629.94;;;4.07
55038;BMP280;40937;53.594;10.034;2023-04-03T07:03:56;103631.81;;;4.05
55038;BMP280;40937;53.594;10.034;2023-04-03T07:06:24;103632.66;;;4.05
55038;BMP280;40937;53.594;10.034;2023-04-03T07:08:52;103633.06;;;4.12
55038;BMP280;40937;53.594;10.034;2023-04-03T07:11:23;103633.56;;;4.17
55038;BMP280;40937;53.594;10.034;2023-04-03T07:13:52;103643.88;;;4.18
55038;BMP280;40937;53.594;10.034;2023-04-03T07:16:20;103637.38;;;4.24
55038;BMP280;40937;53.594;10.034;2023-04-03T07:18:51;103633.56;;;4.28
55038;BMP280;40937;53.594;10.034;2023-04-03T07:21:21;103636.47;;;4.36
55038;BMP280;40937;53.594;10.034;2023-04-03T07:23:50;103640.25;;;4.44
55038;BMP280;40937;53.594;10.034;2023-04-03T07:26:23;103658.34;;;4.47
55038;BMP280;40937;53.594;10.034;2023-04-03T07:28:52;103650.03;;;4.42
55038;BMP280;40937;53.594;10.034;2023-04-03T07:31:19;103642.66;;;4.47
55038;BMP280;40937;53.594;10.034;2023-04-03T07:33:47;103649.09;;;4.54
55038;BMP280;40937;53.594;10.034;2023-04-03T07:36:17;103647.19;;;4.56
55038;BMP280;40937;53.594;10.034;2023-04-03T07:38:45;103647.47;;;4.64
55038;BMP280;40937;53.594;10.034;2023-04-03T07:41:14;103644.63;;;4.67
55038;BMP280;40937;53.594;10.034;2023-04-03T07:43:45;103639.38;;;4.67
55038;BMP280;40937;53.594;10.034;2023-04-03T07:46:12;103642.25;;;4.75
55038;BMP280;40937;53.594;10.034;2023-04-03T07:48:39;103639.16;;;4.82
55038;BMP280;40937;53.594;10.034;2023-04-03T07:51:07;103630.63;;;4.91
55038;BMP280;40937;53.594;10.034;2023-04-03T07:53:34;103633.69;;;4.96
55038;BMP280;40937;53.594;10.034;2023-04-03T07:56:01;103639.25;;;5.03
55038;BMP280;40937;53.594;10.034;2023-04-03T07:58:30;103640.72;;;5.07
55038;BMP280;40937;53.594;10.034;2023-04-03T08:00:58;103643.22;;;5.08
55038;BMP280;40937;53.594;10.034;2023-04-03T08:03:26;103646.19;;;5.15
55038;BMP280;40937;53.594;10.034;2023-04-03T08:05:53;103643.91;;;5.22
55038;BMP280;40937;53.594;10.034;2023-04-03T08:08:23;103639.28;;;5.25
55038;BMP280;40937;53.594;10.034;2023-04-03T08:10:51;103644.75;;;5.22
55038;BMP280;40937;53.594;10.034;2023-04-03T08:13:21;103651.78;;;5.22
55038;BMP280;40937;53.594;10.034;2023-04-03T08:15:51;103642.75;;;5.14
55038;BMP280;40937;53.594;10.034;2023-04-03T08:18:28;103637.38;;;5.16
55038;BMP280;40937;53.594;10.034;2023-04-03T08:35:38;103638.41;;;5.47
55038;BMP280;40937;53.594;10.034;2023-04-03T08:38:08;103637.66;;;5.57
55038;BMP280;40937;53.594;10.034;2023-04-03T08:40:36;103637.88;;;5.65
55038;BMP280;40937;53.594;10.034;2023-04-03T08:43:15;103635.28;;;5.65
55038;BMP280;40937;53.594;10.034;2023-04-03T08:45:50;103633.19;;;5.47
55038;BMP280;40937;53.594;10.034;2023-04-03T08:48:20;103635.03;;;5.57
55038;BMP280;40937;53.594;10.034;2023-04-03T08:50:53;103636.09;;;5.65
55038;BMP280;40937;53.594;10.034;2023-04-03T08:53:25;103632.88;;;5.73
55038;BMP280;40937;53.594;10.034;2023-04-03T08:55:55;103635.69;;;5.81
55038;BMP280;40937;53.594;10.034;2023-04-03T08:58:25;103642.31;;;5.85
55038;BMP280;40937;53.594;10.034;2023-04-03T09:00:55;103634.22;;;5.88
55038;BMP280;40937;53.594;10.034;2023-04-03T09:03:23;103629.47;;;5.94
55038;BMP280;40937;53.594;10.034;2023-04-03T09:05:55;103633.97;;;5.92
55038;BMP280;40937;53.594;10.034;2023-04-03T09:08:26;103630.81;;;5.98
55038;BMP280;40937;53.594;10.034;2023-04-03T09:11:04;103633.69;;;6.06
55038;BMP280;40937;53.594;10.034;2023-04-03T09:13:39;103629.03;;;6.09
55038;BMP280;40937;53.594;10.034;2023-04-03T09:16:20;103625.84;;;5.95
55038;BMP280;40937;53.594;10.034;2023-04-03T09:18:53;103629.06;;;5.98
55038;BMP280;40937;53.594;10.034;2023-04-03T09:21:32;103620.34;;;6.09
55038;BMP280;40937;53.594;10.034;2023-04-03T09:24:04;103616.03;;;6.08
55038;BMP280;40937;53.594;10.034;2023-04-03T09:26:36;103619.06;;;6.13
55038;BMP280;40937;53.594;10.034;2023-04-03T09:29:07;103621.94;;;6.21
55038;BMP280;40937;53.594;10.034;2023-04-03T09:31:37;103623.28;;;6.25
55038;BMP280;40937;53.594;10.034;2023-04-03T09:34:09;103625.41;;;6.32
55038;BMP280;40937;53.594;10.034;2023-04-03T09:36:40;103626.13;;;6.34
55038;BMP280;40937;53.594;10.034;2023-04-03T09:39:13;103612.63;;;6.38
55038;BMP280;40937;53.594;10.034;2023-04-03T09:41:41;103618.44;;;6.42
55038;BMP280;40937;53.594;10.034;2023-04-03T09:44:24;103611.28;;;6.44
55038;BMP280;40937;53.594;10.034;2023-04-03T09:46:52;103620.63;;;6.37
55038;BMP280;40937;53.594;10.034;2023-04-03T09:49:19;103599.34;;;6.40
55038;BMP280;40937;53.594;10.034;2023-04-03T09:51:48;103601.56;;;6.35
55038;BMP280;40937;53.594;10.034;2023-04-03T09:54:40;103607.69;;;6.45
55038;BMP280;40937;53.594;10.034;2023-04-03T09:57:09;103603.31;;;6.55
55038;BMP280;40937;53.594;10.034;2023-04-03T09:59:42;103606.41;;;6.60
55038;BMP280;40937;53.594;10.034;2023-04-03T10:04:56;103596.75;;;6.71
55038;BMP280;40937;53.594;10.034;2023-04-03T10:07:30;103597.22;;;6.76
55038;BMP280;40937;53.594;10.034;2023-04-03T10:10:00;103597.09;;;6.77
55038;BMP280;40937;53.594;10.034;2023-04-03T10:12:27;103591.25;;;6.74
55038;BMP280;40937;53.594;10.034;2023-04-03T10:14:56;103585.75;;;6.77
55038;BMP280;40937;53.594;10.034;2023-04-03T10:17:32;103590.69;;;6.80
55038;BMP280;40937;53.594;10.034;2023-04-03T10:20:07;103584.09;;;6.85
55038;BMP280;40937;53.594;10.034;2023-04-03T10:22:46;103581.88;;;6.81
55038;BMP280;40937;53.594;10.034;2023-04-03T10:25:23;103589.06;;;6.79
55038;BMP280;40937;53.594;10.034;2023-04-03T10:28:00;103590.44;;;6.83
55038;BMP280;40937;53.594;10.034;2023-04-03T10:30:34;103578.06;;;6.95
55038;BMP280;40937;53.594;10.034;2023-04-03T10:33:11;103583.59;;;7.01
55038;BMP280;40937;53.594;10.034;2023-04-03T10:35:51;103576.69;;;7.00
55038;BMP280;40937;53.594;10.034;2023-04-03T10:38:30;103586.63;;;7.07
55038;BMP280;40937;53.594;10.034;2023-04-03T10:41:02;103594.09;;;7.11
55038;BMP280;40937;53.594;10.034;2023-04-03T10:43:37;103584.19;;;7.15
55038;BMP280;40937;53.594;10.034;2023-04-03T10:46:12;103575.59;;;7.13
55038;BMP280;40937;53.594;10.034;2023-04-03T10:49:03;103583.75;;;7.19
55038;BMP280;40937;53.594;10.034;2023-04-03T10:51:37;103573.69;;;7.25
55038;BMP280;40937;53.594;10.034;2023-04-03T10:54:12;103570.66;;;7.29
55038;BMP280;40937;53.594;10.034;2023-04-03T10:56:42;103562.91;;;7.37
55038;BMP280;40937;53.594;10.034;2023-04-03T10:59:23;103559.03;;;7.41
55038;BMP280;40937;53.594;10.034;2023-04-03T11:01:55;103544.38;;;7.49
55038;BMP280;40937;53.594;10.034;2023-04-03T11:04:24;103544.25;;;7.60
55038;BMP280;40937;53.594;10.034;2023-04-03T11:06:57;103536.34;;;7.60
55038;BMP280;40937;53.594;10.034;2023-04-03T11:09:30;103533.56;;;7.71
55038;BMP280;40937;53.594;10.034;2023-04-03T11:12:02;103533.66;;;7.79
55038;BMP280;40937;53.594;10.034;2023-04-03T11:14:33;103542.94;;;7.84
55038;BMP280;40937;53.594;10.034;2023-04-03T11:17:08;103522.97;;;7.91
55038;BMP280;40937;53.594;10.034;2023-04-03T11:19:41;103525.00;;;7.69
55038;BMP280;40937;53.594;10.034;2023-04-03T11:22:18;103519.75;;;7.69
55038;BMP280;40937;53.594;10.034;2023-04-03T11:24:57;103522.22;;;7.61
55038;BMP280;40937;53.594;10.034;2023-04-03T11:27:33;103525.13;;;7.58
55038;BMP280;40937;53.594;10.034;2023-04-03T11:30:06;103527.50;;;7.61
55038;BMP280;40937;53.594;10.034;2023-04-03T11:32:57;103515.06;;;7.63
55038;BMP280;40937;53.594;10.034;2023-04-03T11:35:28;103521.94;;;7.54
55038;BMP280;40937;53.594;10.034;2023-04-03T11:37:57;103517.13;;;7.50
55038;BMP280;40937;53.594;10.034;2023-04-03T11:40:29;103514.53;;;7.30
55038;BMP280;40937;53.594;10.034;2023-04-03T11:43:05;103511.75;;;7.22
55038;BMP280;40937;53.594;10.034;2023-04-03T11:45:37;103516.03;;;7.23
55038;BMP280;40937;53.594;10.034;2023-04-03T11:48:06;103504.00;;;7.30
55038;BMP280;40937;53.594;10.034;2023-04-03T11:50:54;103518.13;;;7.39
55038;BMP280;40937;53.594;10.034;2023-04-03T11:53:28;103504.56;;;7.53
55038;BMP280;40937;53.594;10.034;2023-04-03T11:56:33;103509.50;;;7.56
55038;BMP280;40937;53.594;10.034;2023-04-03T11:59:22;103501.91;;;7.63
55038;BMP280;40937;53.594;10.034;2023-04-03T12:01:51;103497.31;;;7.75
55038;BMP280;40937;53.594;10.034;2023-04-03T12:04:19;103492.28;;;7.91
55038;BMP280;40937;53.594;10.034;2023-04-03T12:10:01;103488.81;;;8.28
55038;BMP280;40937;53.594;10.034;2023-04-03T12:12:38;103492.84;;;8.23
55038;BMP280;40937;53.594;10.034;2023-04-03T12:15:18;103487.94;;;8.10
55038;BMP280;40937;53.594;10.034;2023-04-03T12:17:47;103486.97;;;8.01
55038;BMP280;40937;53.594;10.034;2023-04-03T12:23:24;103483.97;;;8.24
55038;BMP280;40937;53.594;10.034;2023-04-03T12:26:00;103487.50;;;8.14
55038;BMP280;40937;53.594;10.034;2023-04-03T12:28:35;103477.56;;;8.36
55038;BMP280;40937;53.594;10.034;2023-04-03T12:31:05;103478.66;;;8.61
55038;BMP280;40937;53.594;10.034;2023-04-03T12:33:43;103478.25;;;8.74
55038;BMP280;40937;53.594;10.034;2023-04-03T12:36:18;103482.25;;;8.96
55038;BMP280;40937;53.594;10.034;2023-04-03T12:39:02;103477.78;;;8.96
55038;BMP280;40937;53.594;10.034;2023-04-03T12:41:37;103478.13;;;8.93
55038;BMP280;40937;53.594;10.034;2023-04-03T12:47:25;103471.50;;;8.89
55038;BMP280;40937;53.594;10.034;2023-04-03T12:49:55;103468.50;;;8.84
55038;BMP280;40937;53.594;10.034;2023-04-03T12:52:37;103475.56;;;8.66
55038;BMP280;40937;53.594;10.034;2023-04-03T12:55:15;103475.00;;;8.44
55038;BMP280;40937;53.594;10.034;2023-04-03T12:57:43;103461.63;;;8.55
55038;BMP280;40937;53.594;10.034;2023-04-03T13:00:34;103463.47;;;8.73
55038;BMP280;40937;53.594;10.034;2023-04-03T13:03:07;103463.53;;;8.81
55038;BMP280;40937;53.594;10.034;2023-04-03T13:05:46;103471.59;;;8.80
55038;BMP280;40937;53.594;10.034;2023-04-03T13:08:14;103467.44;;;8.77
55038;BMP280;40937;53.594;10.034;2023-04-03T13:10:51;103465.94;;;8.92
55038;BMP280;40937;53.594;10.034;2023-04-03T13:13:19;103467.63;;;9.20
55038;BMP280;40937;53.594;10.034;2023-04-03T13:15:49;103466.00;;;9.01
55038;BMP280;40937;53.594;10.034;2023-04-03T13:18:30;103460.09;;;8.63
55038;BMP280;40937;53.594;10.034;2023-04-03T13:21:02;103466.81;;;8.47
55038;BMP280;40937;53.594;10.034;2023-04-03T13:23:30;103461.06;;;8.62
55038;BMP280;40937;53.594;10.034;2023-04-03T13:25:59;103461.56;;;8.83
55038;BMP280;40937;53.594;10.034;2023-04-03T13:28:30;103459.44;;;9.05
55038;BMP280;40937;53.594;10.034;2023-04-03T13:31:06;103460.16;;;9.15
55038;BMP280;40937;53.594;10.034;2023-04-03T13:33:37;103453.38;;;9.30
55038;BMP280;40937;53.594;10.034;2023-04-03T13:36:07;103460.72;;;9.19
55038;BMP280;40937;53.594;10.034;2023-04-03T13:38:35;103450.06;;;9.28
55038;BMP280;40937;53.594;10.034;2023-04-03T13:41:04;103448.22;;;9.47
55038;BMP280;40937;53.594;10.034;2023-04-03T13:43:35;103442.69;;;9.66
55038;BMP280;40937;53.594;10.034;2023-04-03T13:46:22;103437.19;;;9.51
55038;BMP280;40937;53.594;10.034;2023-04-03T13:48:53;103436.19;;;9.52
55038;BMP280;40937;53.594;10.034;2023-04-03T13:51:24;103440.44;;;9.80
55038;BMP280;40937;53.594;10.034;2023-04-03T13:53:54;103443.53;;;10.09
55038;BMP280;40937;53.594;10.034;2023-04-03T13:56:26;103438.91;;;10.03
55038;BMP280;40937;53.594;10.034;2023-04-03T13:58:57;103438.06;;;10.03
55038;BMP280;40937;53.594;10.034;2023-04-03T14:01:32;103443.59;;;9.83
55038;BMP280;40937;53.594;10.034;2023-04-03T14:04:10;103432.22;;;9.83
55038;BMP280;40937;53.594;10.034;2023-04-03T14:06:38;103433.97;;;10.17
55038;BMP280;40937;53.594;10.034;2023-04-03T14:09:05;103422.47;;;10.26
55038;BMP280;40937;53.594;10.034;2023-04-03T14:11:34;103421.19;;;10.38
55038;BMP280;40937;53.594;10.034;2023-04-03T14:14:05;103414.22;;;10.53
55038;BMP280;40937;53.594;10.034;2023-04-03T14:16:37;103418.50;;;10.30
55038;BMP280;40937;53.594;10.034;2023-04-03T14:19:17;103426.22;;;10.15
55038;BMP280;40937;53.594;10.034;2023-04-03T14:21:45;103414.81;;;10.14
55038;BMP280;40937;53.594;10.034;2023-04-03T14:24:12;103419.13;;;10.07
55038;BMP280;40937;53.594;10.034;2023-04-03T14:26:39;103412.56;;;10.20
55038;BMP280;40937;53.594;10.034;2023-04-03T14:29:10;103414.19;;;10.21
55038;BMP280;40937;53.594;10.034;2023-04-03T14:31:37;103413.69;;;10.25
55038;BMP280;40937;53.594;10.034;2023-04-03T15:03:29;103407.44;;;9.07
55038;BMP280;40937;53.594;10.034;2023-04-03T15:06:53;103407.94;;;8.84
55038;BMP280;40937;53.594;10.034;2023-04-03T15:09:47;103390.41;;;8.75
55038;BMP280;40937;53.594;10.034;2023-04-03T15:12:15;103395.03;;;8.73
55038;BMP280;40937;53.594;10.034;2023-04-03T15:14:42;103403.28;;;8.78
55038;BMP280;40937;53.594;10.034;2023-04-03T15:17:15;103402.00;;;8.82